Terminal Aerodrome Forecast
Issued by NWS

Home | Current Version | Previous Version | Text Only | Print | Product List | Glossary On
Versions: 1 2 3 4 5 6 7 8 9 10 11 12 13 14
000
FTUS42 KTBW 290521
TAFLAL
TAF
KLAL 290521Z 2906/3006 VRB03KT P6SM FEW250
      TEMPO 2909/2913 5SM BR
     FM291300 VRB03KT P6SM SCT015 SCT250
      TEMPO 2913/2915 BKN015
     FM291500 31007KT P6SM SCT030 SCT250
     FM292000 28010KT P6SM SCT050 SCT250
      AMD NOT SKED 2906/2911=

USA.gov is the U.S. government's official web portal to all federal, state and local government web resources and services.